createdAt,value
2018-07-02T00:04:04.829Z,101470.07
2018-07-02T00:09:07.978Z,101462.29
2018-07-02T00:14:10.991Z,101452.55
2018-07-02T00:19:14.006Z,101455.36
2018-07-02T00:24:17.066Z,101445.45
2018-07-02T00:29:20.345Z,101447.94
2018-07-02T00:34:23.497Z,101440.48
2018-07-02T00:39:26.513Z,101435.40
2018-07-02T00:44:29.605Z,101436.19
2018-07-02T00:49:32.650Z,101434.16
2018-07-02T00:54:35.677Z,101431.13
2018-07-02T00:59:38.736Z,101434.02
2018-07-02T01:04:41.822Z,101434.23
2018-07-02T01:09:44.801Z,101431.13
2018-07-02T01:14:47.829Z,101426.13
2018-07-02T01:19:50.838Z,101418.59
2018-07-02T01:24:53.861Z,101417.15
2018-07-02T01:29:56.849Z,101410.83
2018-07-02T01:34:59.920Z,101408.47
2018-07-02T01:40:03.881Z,101405.98
2018-07-02T01:45:06.893Z,101405.45
2018-07-02T01:50:09.901Z,101398.30
2018-07-02T01:55:12.893Z,101405.98
2018-07-02T02:00:15.905Z,101412.33
2018-07-02T02:05:18.985Z,101417.48
2018-07-02T02:10:22.028Z,101416.64
2018-07-02T02:15:25.102Z,101405.48
2018-07-02T02:20:28.174Z,101418.05
2018-07-02T02:25:31.231Z,101409.72
2018-07-02T02:30:34.289Z,101416.16
2018-07-02T02:35:37.348Z,101416.23
2018-07-02T02:40:40.389Z,101417.63
2018-07-02T02:45:43.451Z,101415.59
2018-07-02T02:50:46.461Z,101412.61
2018-07-02T02:55:49.448Z,101406.87
2018-07-02T03:00:52.489Z,101415.84
2018-07-02T03:05:55.513Z,101409.94
2018-07-02T03:10:58.536Z,101419.56
2018-07-02T03:16:01.600Z,101411.48
2018-07-02T03:21:04.672Z,101410.56
2018-07-02T03:26:07.701Z,101425.20
2018-07-02T03:31:10.737Z,101419.31
2018-07-02T03:36:13.744Z,101434.66
2018-07-02T03:41:16.745Z,101432.30
2018-07-02T03:46:19.737Z,101435.92
2018-07-02T03:51:22.786Z,101439.59
2018-07-02T03:56:25.965Z,101438.16
2018-07-02T04:01:28.942Z,101440.15
2018-07-02T04:06:31.961Z,101432.23
2018-07-02T04:11:34.976Z,101430.98
2018-07-02T04:16:38.277Z,101436.31
2018-07-02T04:21:42.230Z,101431.02
2018-07-02T04:26:45.379Z,101438.34
2018-07-02T04:31:48.373Z,101442.61
2018-07-02T04:36:51.392Z,101435.26
2018-07-02T04:41:54.392Z,101434.73
2018-07-02T04:46:57.456Z,101427.14
2018-07-02T04:52:00.533Z,101425.53
2018-07-02T04:57:03.548Z,101433.53
2018-07-02T05:02:06.649Z,101430.76
2018-07-02T05:07:09.669Z,101441.62
2018-07-02T05:12:12.669Z,101446.27
2018-07-02T05:17:15.689Z,101447.16
2018-07-02T05:22:18.793Z,101450.66
2018-07-02T05:27:21.757Z,101449.86
2018-07-02T05:32:24.768Z,101456.91
2018-07-02T05:37:27.870Z,101454.53
2018-07-02T05:42:31.386Z,101454.83
2018-07-02T05:47:34.505Z,101478.28
2018-07-02T05:52:39.081Z,101468.50
2018-07-02T05:57:42.129Z,101466.50
2018-07-02T06:02:45.129Z,101469.80
2018-07-02T06:07:48.588Z,101464.52
2018-07-02T06:12:51.552Z,101469.03
2018-07-02T06:17:54.520Z,101468.45
2018-07-02T06:22:57.517Z,101466.47
2018-07-02T06:28:00.514Z,101447.00
2018-07-02T06:33:03.677Z,101466.81
2018-07-02T06:38:06.666Z,101453.25
2018-07-02T06:43:09.647Z,101462.30
2018-07-02T06:48:12.603Z,101456.25
2018-07-02T06:53:15.709Z,101454.55
2018-07-02T06:58:18.708Z,101454.55
2018-07-02T07:03:21.701Z,101448.00
2018-07-02T07:08:24.703Z,101450.50
2018-07-02T07:13:27.783Z,101448.70
2018-07-02T07:18:31.141Z,101438.67
2018-07-02T07:23:34.185Z,101456.50
2018-07-02T07:28:37.237Z,101448.20
2018-07-02T07:33:40.224Z,101448.20
2018-07-02T07:38:43.228Z,101450.84
2018-07-02T07:43:46.202Z,101450.27
2018-07-02T07:48:49.178Z,101460.64
2018-07-02T07:53:52.169Z,101462.78
2018-07-02T07:58:55.148Z,101473.67
2018-07-02T08:03:58.347Z,101466.17
2018-07-02T08:09:01.345Z,101469.22
2018-07-02T08:14:04.421Z,101463.87
2018-07-02T08:19:07.516Z,101464.81
2018-07-02T08:24:10.537Z,101470.32
2018-07-02T08:29:13.673Z,101462.41
2018-07-02T08:34:16.669Z,101476.85
2018-07-02T08:39:19.698Z,101467.91
2018-07-02T08:44:22.717Z,101462.79
2018-07-02T08:49:25.748Z,101459.88
2018-07-02T08:54:28.793Z,101458.86
2018-07-02T08:59:31.939Z,101450.85
2018-07-02T09:04:34.972Z,101457.85
2018-07-02T09:09:38.037Z,101458.20
2018-07-02T09:14:41.117Z,101446.38
2018-07-02T09:19:44.133Z,101443.95
2018-07-02T09:24:47.294Z,101439.50
2018-07-02T09:29:50.333Z,101444.38
2018-07-02T09:34:53.329Z,101441.98
2018-07-02T09:39:56.321Z,101435.70
2018-07-02T09:44:59.384Z,101444.64
2018-07-02T09:50:02.471Z,101442.12
2018-07-02T09:55:05.745Z,101430.27
2018-07-02T10:00:08.932Z,101432.47
2018-07-02T10:05:11.956Z,101425.05
2018-07-02T10:10:15.001Z,101418.50
2018-07-02T10:15:18.006Z,101414.98
2018-07-02T10:20:21.121Z,101417.04
2018-07-02T10:25:24.173Z,101417.88
2018-07-02T10:30:27.161Z,101417.16
2018-07-02T10:35:30.157Z,101413.02
2018-07-02T10:40:33.189Z,101404.88
2018-07-02T10:45:36.189Z,101412.66
2018-07-02T10:50:39.182Z,101411.92
2018-07-02T10:55:42.279Z,101396.94
2018-07-02T11:00:45.256Z,101397.92
2018-07-02T11:05:49.264Z,101395.61
2018-07-02T11:10:52.340Z,101404.45
2018-07-02T11:15:55.372Z,101400.41
2018-07-02T11:20:58.389Z,101396.08
2018-07-02T11:26:01.431Z,101384.98
2018-07-02T11:31:04.481Z,101384.48
2018-07-02T11:36:07.492Z,101368.47
2018-07-02T11:41:10.484Z,101375.14
2018-07-02T11:46:13.489Z,101377.34
2018-07-02T11:51:16.501Z,101366.89
2018-07-02T11:56:19.506Z,101367.04
2018-07-02T12:01:22.503Z,101358.89
2018-07-02T12:06:25.555Z,101356.97
2018-07-02T12:11:28.576Z,101355.30
2018-07-02T12:16:31.581Z,101361.02
2018-07-02T12:21:34.965Z,101359.30
2018-07-02T12:26:37.979Z,101358.03
2018-07-02T12:31:40.973Z,101362.70
2018-07-02T12:36:44.017Z,101360.63
2018-07-02T12:41:47.024Z,101351.56
2018-07-02T12:46:50.096Z,101349.69
2018-07-02T12:51:53.101Z,101354.11
2018-07-02T12:56:56.130Z,101356.79
2018-07-02T13:01:59.141Z,101348.09
2018-07-02T13:07:02.214Z,101351.94
2018-07-02T13:12:05.355Z,101344.03
2018-07-02T13:17:08.385Z,101341.95
2018-07-02T13:22:11.445Z,101341.20
2018-07-02T13:27:14.449Z,101330.69
2018-07-02T13:32:17.532Z,101327.91
2018-07-02T13:37:20.590Z,101325.39
2018-07-02T13:42:23.637Z,101318.77
2018-07-02T13:47:26.689Z,101319.97
2018-07-02T13:52:29.729Z,101318.23
2018-07-02T13:57:32.812Z,101317.22
2018-07-02T14:02:35.853Z,101315.15
2018-07-02T14:07:38.885Z,101304.03
2018-07-02T14:12:41.942Z,101302.10
2018-07-02T14:17:45.127Z,101304.50
2018-07-02T14:22:48.183Z,101287.80
2018-07-02T14:27:51.451Z,101293.89
2018-07-02T14:32:54.620Z,101291.13
2018-07-02T14:37:57.636Z,101274.42
2018-07-02T14:43:00.727Z,101276.06
2018-07-02T14:48:03.909Z,101277.11
2018-07-02T14:53:06.911Z,101274.78
2018-07-02T14:58:10.000Z,101267.36
2018-07-02T15:03:13.046Z,101265.64
2018-07-02T15:08:16.105Z,101269.81
2018-07-02T15:13:19.153Z,101263.16
2018-07-02T15:18:22.314Z,101261.11
2018-07-02T15:23:25.398Z,101263.20
2018-07-02T15:28:28.522Z,101267.59
2018-07-02T15:33:31.723Z,101264.75
2018-07-02T15:38:34.888Z,101257.61
2018-07-02T15:43:37.880Z,101253.33
2018-07-02T15:48:40.863Z,101252.71
2018-07-02T15:53:43.883Z,101237.73
2018-07-02T15:58:46.908Z,101250.17
2018-07-02T16:03:49.973Z,101250.30
2018-07-02T16:08:53.149Z,101237.70
2018-07-02T16:13:56.220Z,101245.34
2018-07-02T16:18:59.204Z,101243.91
2018-07-02T16:24:02.369Z,101239.25
2018-07-02T16:29:05.781Z,101233.72
2018-07-02T16:34:08.785Z,101235.07
2018-07-02T16:39:12.336Z,101231.39
2018-07-02T16:44:15.517Z,101226.34
2018-07-02T16:49:18.558Z,101224.45
2018-07-02T16:54:21.596Z,101231.57
2018-07-02T16:59:24.606Z,101228.30
2018-07-02T17:04:27.694Z,101217.50
2018-07-02T17:09:30.901Z,101219.96
2018-07-02T17:14:34.001Z,101216.94
2018-07-02T17:19:37.136Z,101210.08
2018-07-02T17:24:40.129Z,101211.36
2018-07-02T17:29:43.280Z,101222.72
2018-07-02T17:34:46.368Z,101222.92
2018-07-02T17:39:49.425Z,101220.86
2018-07-02T17:44:52.469Z,101219.78
2018-07-02T17:49:55.532Z,101224.19
2018-07-02T17:54:58.590Z,101217.61
2018-07-02T18:00:01.633Z,101220.57
2018-07-02T18:05:05.196Z,101214.20
2018-07-02T18:10:08.306Z,101214.75
2018-07-02T18:15:11.376Z,101207.04
2018-07-02T18:20:14.411Z,101211.90
2018-07-02T18:25:17.613Z,101213.39
2018-07-02T18:30:21.356Z,101197.12
2018-07-02T18:35:24.551Z,101199.39
2018-07-02T18:40:27.785Z,101201.59
2018-07-02T18:45:30.803Z,101203.53
2018-07-02T18:50:33.956Z,101202.47
2018-07-02T18:55:37.061Z,101209.45
2018-07-02T19:00:40.377Z,101217.28
2018-07-02T19:05:43.453Z,101225.19
2018-07-02T19:10:46.689Z,101233.30
2018-07-02T19:15:49.733Z,101233.30
2018-07-02T19:20:52.765Z,101232.83
2018-07-02T19:25:55.757Z,101229.94
2018-07-02T19:30:58.793Z,101232.45
2018-07-02T19:36:01.835Z,101244.51
2018-07-02T19:41:05.005Z,101245.96
2018-07-02T19:46:08.085Z,101252.94
2018-07-02T19:51:11.069Z,101254.81
2018-07-02T19:56:14.124Z,101262.83
2018-07-02T20:01:17.191Z,101261.50
2018-07-02T20:06:20.306Z,101263.96
2018-07-02T20:11:24.332Z,101258.36
2018-07-02T20:16:27.469Z,101261.28
2018-07-02T20:21:30.939Z,101271.95
2018-07-02T20:26:34.277Z,101278.00
2018-07-02T20:31:37.423Z,101278.63
2018-07-02T20:36:40.543Z,101275.47
2018-07-02T20:41:43.629Z,101282.49
2018-07-02T20:46:46.698Z,101284.02
2018-07-02T20:51:49.822Z,101289.69
2018-07-02T20:56:52.882Z,101303.47
2018-07-02T21:01:55.973Z,101305.84
2018-07-02T21:06:59.074Z,101309.42
2018-07-02T21:12:02.145Z,101323.47
2018-07-02T21:17:05.229Z,101319.48
2018-07-02T21:22:08.791Z,101329.94
2018-07-02T21:27:11.812Z,101324.38
2018-07-02T21:32:14.834Z,101330.83
2018-07-02T21:37:17.865Z,101330.00
2018-07-02T21:42:21.025Z,101322.34
2018-07-02T21:47:25.107Z,101324.97
2018-07-02T21:52:28.273Z,101329.17
2018-07-02T21:57:31.377Z,101329.80
2018-07-02T22:02:34.413Z,101335.55
2018-07-02T22:07:37.873Z,101328.17
2018-07-02T22:12:41.582Z,101326.52
2018-07-02T22:17:44.579Z,101334.13
2018-07-02T22:22:47.601Z,101335.70
2018-07-02T22:27:50.605Z,101337.08
2018-07-02T22:32:53.663Z,101329.80
2018-07-02T22:37:56.737Z,101330.02
2018-07-02T22:42:59.742Z,101329.94
2018-07-02T22:48:02.773Z,101338.23
2018-07-02T22:53:06.045Z,101340.62
2018-07-02T22:58:09.045Z,101339.84
2018-07-02T23:03:12.069Z,101346.02
2018-07-02T23:08:15.065Z,101350.94
2018-07-02T23:13:18.077Z,101342.99
2018-07-02T23:18:21.110Z,101352.30
2018-07-02T23:23:24.137Z,101352.19
2018-07-02T23:28:27.208Z,101352.17
2018-07-02T23:33:30.225Z,101357.56
2018-07-02T23:38:33.249Z,101351.20
2018-07-02T23:43:36.318Z,101357.64
2018-07-02T23:48:39.345Z,101360.31
2018-07-02T23:53:42.360Z,101366.92
2018-07-02T23:58:45.349Z,101370.68
